Airfield :
LOGIN :

Register | Disclaimer

   EN    FR    IT 

 










Legend :    VFR   Marginal VFR   IFR   Intensive IFR   Very Intensive IFR
Visi :
Ceiling :
>= 8 km
>= 3000ft
5 to 8 km
1000 to 3000 ft
1500m to 5 km
500 to 1000 ft
800 to 1500m
200 to 500 ft
< 800m
< 200 ft
Symbols :   Thunderstorms  Fog  Heavy snow  Heavy precipitations  Wind > 20 kt
SIGMETs :     Misc.  Thunderstorms  Icing  Turbulence  Mountain Waves  Volcanic Ashes







- Airport Elevation : 1548 ft


LKNA - Náměšť Air Base

CURRENT METAR :
  • 231300Z 29011KT 9999 OVC021 03/01 Q1023 NOSIG RMK WHT WHT

EXPIRED METARs :
  • 231200Z 30009KT 9999 BKN020 OVC070 02/01 Q1023 NOSIG RMK WHT WHT
  • 231100Z 29009KT 9999 -RA FEW010 BKN023 OVC070 02/01 Q1022 NOSIG RMK WHT WHT

TAF COR TAF LKNA
Valid from the 23 at 12:00 until the 24 at 12:00 UTC


231100Z 2312/2412 28010KT 9999 BKN025
PROB40
TEMPO 2312/2315 7000 SHRA BKN020
BECMG 2318/2320 VRB02KT
BECMG 2320/2322 16006KT
BECMG 2403/2405 5000 BR BKN010
TEMPO 2405/2411 3000 RA BR BKN005
No reported NOTAMs for that airfield.



MET'MAP, your aeronautical weather chart ! - Copyright ORBIFLY December 2007 - Disclaimer

ORBIFLY MET'MAP TEAM :

Programming & Development : Alexandra Zaïnal
Concept & Development : Baudouin d'Aumeries
Co-Development & Prog : Marc-Olivier Méhu
Technical & hardware support : Manuel Goepfert

Contact : metmap@orbifly.com




SOURCES & CREDITS :

   NOAA